Tiempo atmosférico en la estación meteorológica de Arenys De Mar, Barcelona (50 m.)



Fecha
DESCASC
Temp. máxima en grados centígrados (hora)
DESCASC
Temp. mínima en grados centígrados (hora)
DESCASC
Temp. media en grados centígrados
DESCASC
Racha de viento máxima en m/sg (hora)
DESCASC
Velocidad máxima media en intervalos de 10 minutos(hora)
DESCASC
Precipitaciones diarias en mm
DESCASC
Precipitaciones de 00:00 a 06:00 en mm
DESCASC
Precipitaciones de 06:00 a 12:00 en mm
DESCASC
Precipitaciones de 12:00 a 18:00 en mm
DESCASC
Precipitaciones de 18:00 a 24:00 en mm
DESCASC
16-01-2020 15 (12:00) 5.7 (05:00) 10.3 5.83 (15:00) 3.06 (13:30) 0 0 0 0 0
15-01-2020 15.1 (12:30) 6.7 (06:10) 10.9 8.33 (15:40) 3.06 (16:30) 0 0 0 0 0
14-01-2020 16.4 (12:00) 3.3 (07:00) 9.8 8.33 (14:30) 3.89 (14:00) 0 0 0 0 0
13-01-2020 14.2 (11:50) 2.7 (06:30) 8.4 5.83 (23:40) 2.22 (14:20) 0 0 0 0 0
12-01-2020 14.7 (11:10) 3.5 (00:00) 9.1 4.44 (23:10) 2.22 (23:30) 0 0 0 0 0
11-01-2020 14.6 (13:00) 4.6 (00:00) 9.6 3.89 (08:50) 2.5 (08:30) 0.1 0 0.1 0 0
10-01-2020 12.1 (14:30) 6.7 (00:00) 9.4 7.78 (09:50) 3.89 (09:50) 9.3 0.3 9 0 0
09-01-2020 14.9 (13:10) 6.1 (00:00) 10.5 7.78 (16:10) 3.61 (15:10) 0 0 0 0 0
08-01-2020 17.5 (13:50) 6.3 (00:00) 11.9 7.78 (12:30) 3.61 (11:20) 0 0 0 0 0
07-01-2020 18 (12:50) 5.6 (00:00) 11.8 6.11 (12:40) 2.5 (12:40) 0 0 0 0 0
06-01-2020 17.4 (11:50) 5.2 (00:00) 11.3 5.28 (07:20) 3.06 (07:40) 0 0 0 0 0
05-01-2020 16.7 (11:40) 5.6 (00:00) 11.2 4.44 (05:20) 2.78 (22:30) 0 0 0 0 0
04-01-2020 15.8 (12:00) 6 (00:00) 10.9 4.44 (06:10) 2.78 (06:40) 0 0 0 0 0
03-01-2020 15.1 (13:50) 5.8 (00:00) 10.5 5.56 (03:10) 3.06 (07:40) 0 0 0 0 0
02-01-2020 13.7 (13:50) 5.1 (00:00) 9.4 7.5 (10:40) 3.06 (13:10) 0 0 0 0 0
01-01-2020 14.5 (11:20) 4.9 (00:00) 9.7 4.72 (12:20) 2.22 (13:10) 0 0 0 0 0
31-12-2019 15.1 (13:40) 6.2 (00:00) 10.7 6.39 (14:10) 2.5 (13:20) 0 0 0 0 0
30-12-2019 15.1 (11:10) 6.7 (00:00) 10.9 5.28 (13:40) 2.22 (14:30) 0 0 0 0 0
29-12-2019 15.3 (12:00) 7 (00:00) 11.2 3.89 (13:00) 1.94 (00:10) 0 0 0 0 0
28-12-2019 16.5 (11:30) 7.1 (00:00) 11.8 4.17 (05:40) 1.94 (23:00) 0 0 0 0 0
27-12-2019 18.9 (13:30) 7.8 (00:00) 13.3 5.28 (12:20) 2.5 (06:50) 0 0 0 0 0
26-12-2019 18.7 (13:20) 8.6 (00:00) 13.7 3.33 (08:30) 1.67 (15:40) 0 0 0 0 0
25-12-2019 21.5 (12:20) 8 (00:00) 14.8 3.89 (00:50) 1.67 (00:10) 0 0 0 0 0
24-12-2019 17.9 (14:00) 7.2 (00:00) 12.5 4.17 (20:40) 2.22 (00:20) 0 0 0 0 0
23-12-2019 18.1 (13:20) 6.4 (00:00) 12.3 9.72 (08:40) 3.89 (08:00) 0 0 0 0 0
22-12-2019 18 (13:20) 10.1 (00:00) 14.1 15.83 (03:10) 5.83 (06:30) 0 0 0 0 0
21-12-2019 19.5 (13:20) 10.4 (00:00) 14.9 15.56 (23:10) 5.28 (22:20) 0.3 0.3 0 0 0
20-12-2019 17.5 (13:40) 12.5 (00:00) 15 9.17 (01:30) 4.72 (15:20) 9.4 4.1 4.2 0 1.1

Gráficas

Temp. máximas Temp. mínimas Temp. medias Precipitaciones Rachas de viento máximas Velocidades máximas media en intervalos de 10 minutos

Datos horarios

Fecha y hora oficial Temperatura (ºC) Velocidad del viento (km/h) Dirección del viento Racha (km/h) Dirección de racha Precipitación (mm) Presión (hPa) Tendencia (hPa) Humedad (%)
2020-01-18 23:00:00 9.8 5 Norte 12 Norte 0 -- -- 74
2020-01-18 22:00:00 8.5 4 Norte 9 Norte 0 -- -- 79
2020-01-18 21:00:00 7.4 4 Nordeste 8 Norte 0 -- -- 83
2020-01-18 20:00:00 7.5 4 Norte 9 Noroeste 0 -- -- 83
2020-01-18 19:00:00 7.9 4 Norte 8 Norte 0 -- -- 79
2020-01-18 18:00:00 9.1 3 Noroeste 8 Sudoeste 0 -- -- 72
2020-01-18 17:00:00 11.7 4 Sudoeste 14 Sudoeste 0 -- -- 59
2020-01-18 16:00:00 12.1 6 Sur 14 Sur 0 -- -- 65
2020-01-18 15:00:00 12.3 6 Sur 14 Sur 0 -- -- 61
2020-01-18 14:00:00 14 5 Sudeste 13 Sudeste 0 -- -- 52
2020-01-18 13:00:00 14.7 4 Sudeste 14 Nordeste 0 -- -- 49
2020-01-18 12:00:00 15.8 4 Sudeste 11 Sudeste 0 -- -- 46
2020-01-18 11:00:00 11.9 0 Calma 5 Norte 0 -- -- 68
2020-01-18 10:00:00 10.8 4 Norte 10 Norte 0 -- -- 70
2020-01-18 09:00:00 9.6 4 Norte 11 Norte 0 -- -- 74
2020-01-18 08:00:00 9.1 4 Norte 13 Norte 0 -- -- 75
2020-01-18 07:00:00 9 3 Norte 13 Norte 0 -- -- 77
2020-01-18 06:00:00 8.9 4 Norte 10 Norte 0 -- -- 78
2020-01-18 05:00:00 8.4 5 Norte 12 Norte 0 -- -- 82
2020-01-18 04:00:00 8.3 5 Norte 10 Norte 0 -- -- 86
2020-01-18 03:00:00 8.5 5 Norte 7 Norte 0 -- -- 85
2020-01-18 02:00:00 8.6 3 Norte 8 Norte 0 -- -- 84
2020-01-18 01:00:00 7.6 5 Norte 10 Norte 0 -- -- 85
2020-01-18 00:00:00 7.7 5 Norte 10 Norte 0 -- -- 82
2020-01-17 23:00:00 7.5 5 Norte 12 Norte 0 -- -- 80
2020-01-17 22:00:00 8 5 Noroeste 10 Norte 0 -- -- 77
2020-01-17 21:00:00 8.5 3 Noroeste 10 Nordeste 0 -- -- 72
2020-01-17 20:00:00 9.8 2 Norte 9 Norte 0 -- -- 61
2020-01-17 19:00:00 12.1 2 Norte 14 Este 0 -- -- 52
2020-01-17 18:00:00 14.3 4 Nordeste 36 Noroeste 0 -- -- 41
2020-01-17 17:00:00 15.5 9 Oeste 32 Noroeste 0 -- -- 34
2020-01-17 16:00:00 16.8 8 Sudoeste 31 Sudoeste 0 -- -- 35
2020-01-17 15:00:00 17.2 13 Oeste 38 Oeste 0 -- -- 33
2020-01-17 14:00:00 17.9 10 Oeste 33 Sudoeste 0 -- -- 33
2020-01-17 13:00:00 17.3 11 Oeste 36 Noroeste 0 -- -- 36
2020-01-17 12:00:00 16.1 10 Noroeste 36 Oeste 0 -- -- 37
2020-01-17 11:00:00 15.5 13 Sudoeste 34 Sudoeste 0 -- -- 41
2020-01-17 10:00:00 13.4 5 Sur 17 Sudoeste 0 -- -- 55
2020-01-17 09:00:00 10.3 7 Sur 23 Sudoeste 0 -- -- 69
2020-01-17 08:00:00 11 8 Oeste 19 Oeste 0 -- -- 68
2020-01-17 07:00:00 9.7 4 Oeste 14 Oeste 0 -- -- 76
2020-01-17 06:00:00 11.2 6 Sudoeste 17 Oeste 0 -- -- 72
2020-01-17 05:00:00 11.1 9 Oeste 20 Oeste 0 -- -- 77
2020-01-17 04:00:00 10.6 8 Sudoeste 27 Sudoeste 0 -- -- 80
2020-01-17 03:00:00 11.1 7 Oeste 20 Oeste 0 -- -- 77
2020-01-17 02:00:00 12.1 6 Oeste 17 Oeste 0 -- -- 74
2020-01-17 01:00:00 11.9 3 Oeste 11 Sudoeste 0 -- -- 83
2020-01-17 00:00:00 11.1 3 Oeste 13 Oeste 0 -- -- 86
2020-01-16 23:00:00 11.5 4 Oeste 14 Sudoeste 0 -- -- 84
2020-01-16 22:00:00 12 4 Oeste 13 Oeste 0 -- -- 84
2020-01-16 21:00:00 12.2 3 Oeste 13 Sudoeste 0 -- -- 85
2020-01-16 20:00:00 10.9 2 Oeste 12 Sudoeste 0 -- -- 88
2020-01-16 19:00:00 10.3 2 Sudoeste 12 Sudoeste 0 -- -- 88
2020-01-16 18:00:00 11.6 6 Sudoeste 17 Sudoeste 0 -- -- 83
2020-01-16 17:00:00 12.8 7 Sudoeste 19 Sur 0 -- -- 71
2020-01-16 16:00:00 13.4 8 Sudoeste 20 Sudoeste 0 -- -- 60
2020-01-16 15:00:00 13.5 10 Sur 21 Sudoeste 0 -- -- 60
2020-01-16 14:00:00 13.6 9 Sur 21 Sur 0 -- -- 59
2020-01-16 13:00:00 13.8 9 Sur 20 Sur 0 -- -- 57
2020-01-16 12:00:00 14.4 8 Sur 17 Sur 0 -- -- 52
2020-01-16 11:00:00 14.1 6 Sur 11 Sur 0 -- -- 52
2020-01-16 10:00:00 9.5 3 Norte 8 Norte 0 -- -- 74
2020-01-16 09:00:00 6.6 4 Norte 10 Norte 0 -- -- 84
2020-01-16 08:00:00 6.7 6 Norte 14 Norte 0 -- -- 83
2020-01-16 07:00:00 6.2 4 Norte 9 Noroeste 0 -- -- 85
2020-01-16 06:00:00 6.1 3 Noroeste 10 Norte 0 -- -- 81
2020-01-16 05:00:00 6 4 Norte 9 Norte 0 -- -- 81
2020-01-16 04:00:00 7.2 5 Norte 12 Norte 0 -- -- 75
2020-01-16 03:00:00 6.6 5 Norte 9 Norte 0 -- -- 80
2020-01-16 02:00:00 6 3 Norte 9 Noroeste 0 -- -- 79
2020-01-16 01:00:00 6.5 4 Norte 13 Norte 0 -- -- 75
2020-01-16 00:00:00 7.6 6 Norte 11 Norte 0 -- -- 71
2020-01-15 23:00:00 7.6 5 Norte 12 Norte 0 -- -- 71
2020-01-15 22:00:00 8.1 4 Norte 11 Norte 0 -- -- 69
2020-01-15 21:00:00 8.7 3 Noroeste 7 Oeste 0 -- -- 70
2020-01-15 20:00:00 8.2 2 Nordeste 9 Nordeste 0 -- -- 71
2020-01-15 19:00:00 8.6 0 Calma 8 Oeste 0 -- -- 69
2020-01-15 18:00:00 10.4 3 Oeste 17 Sur 0 -- -- 60
2020-01-15 17:00:00 12 8 Sudoeste 22 Sudoeste 0 -- -- 52
2020-01-15 16:00:00 12.9 10 Sudoeste 30 Sur 0 -- -- 51
2020-01-15 15:00:00 13.1 8 Sudoeste 22 Sur 0 -- -- 46
2020-01-15 14:00:00 13.9 8 Sur 20 Sur 0 -- -- 41
2020-01-15 13:00:00 15.1 5 Sudoeste 20 Sur 0 -- -- 35
2020-01-15 12:00:00 14.5 7 Sudoeste 22 Sudoeste 0 -- -- 38
2020-01-15 11:00:00 13.5 7 Sudoeste 17 Sur 0 -- -- 52
2020-01-15 10:00:00 11 5 Sudoeste 14 Sudoeste 0 -- -- 69
2020-01-15 09:00:00 8.9 0 Calma 10 Sudoeste 0 -- -- 79
2020-01-15 08:00:00 7.5 2 Oeste 9 Noroeste 0 -- -- 86
2020-01-15 07:00:00 7.1 3 Noroeste 13 Sudoeste 0 -- -- 86
2020-01-15 06:00:00 6.9 3 Noroeste 10 Sudoeste 0 -- -- 87
2020-01-15 05:00:00 7.8 4 Oeste 18 Sudoeste 0 -- -- 84
2020-01-15 04:00:00 7 4 Oeste 8 Noroeste 0 -- -- 87
2020-01-15 03:00:00 9.1 3 Oeste 10 Oeste 0 -- -- 80
2020-01-15 02:00:00 8.5 3 Oeste 12 Oeste 0 -- -- 80
2020-01-15 01:00:00 8.9 3 Oeste 12 Oeste 0 -- -- 83
2020-01-15 00:00:00 7.4 3 Norte 9 Noroeste 0 -- -- 86
2020-01-14 23:00:00 8.9 3 Oeste 12 Oeste 0 -- -- 79
2020-01-14 22:00:00 10 4 Oeste 12 Oeste 0 -- -- 75
2020-01-14 21:00:00 10.1 3 Oeste 12 Oeste 0 -- -- 76
2020-01-14 20:00:00 10.6 4 Oeste 15 Oeste 0 -- -- 71
2020-01-14 19:00:00 10.4 5 Oeste 14 Sudoeste 0 -- -- 55
2020-01-14 18:00:00 11.1 4 Sudoeste 24 Sudoeste 0 -- -- 53
2020-01-14 17:00:00 12.2 11 Sudoeste 29 Sudoeste 0 -- -- 54
2020-01-14 16:00:00 13 11 Sudoeste 30 Oeste 0 -- -- 47
2020-01-14 15:00:00 13.3 9 Sur 30 Sur 0 -- -- 44
2020-01-14 14:00:00 14.2 14 Sur 26 Sur 0 -- -- 35
2020-01-14 13:00:00 15.7 6 Sur 19 Sur 0 -- -- 33
2020-01-14 12:00:00 15.1 4 Sudoeste 20 Sudoeste 0 -- -- 29
2020-01-14 11:00:00 13.5 7 Sudoeste 19 Oeste 0 -- -- 33
2020-01-14 10:00:00 7.4 0 Calma 5 Sudoeste 0 -- -- 61
2020-01-14 09:00:00 4.5 0 Calma 7 Nordeste 0 -- -- 70
2020-01-14 08:00:00 3.7 2 Noroeste 12 Oeste 0 -- -- 70
2020-01-14 07:00:00 3.4 2 Noroeste 12 Oeste 0 -- -- 74
2020-01-14 06:00:00 3.8 3 Norte 8 Norte 0 -- -- 75
2020-01-14 05:00:00 3.9 3 Noroeste 9 Norte 0 -- -- 80
2020-01-14 04:00:00 4.6 5 Norte 9 Norte 0 -- -- 86
2020-01-14 03:00:00 5.4 2 Norte 10 Noroeste 0 -- -- 81
2020-01-14 02:00:00 7.2 3 Noroeste 12 Noroeste 0 -- -- 72
2020-01-14 01:00:00 9 5 Noroeste 18 Oeste 0 -- -- 68
2020-01-14 00:00:00 9.1 7 Oeste 21 Sudoeste 0 -- -- 64
2020-01-13 23:00:00 7.3 4 Noroeste 13 Oeste 0 -- -- 69
2020-01-13 22:00:00 7.6 3 Noroeste 9 Oeste 0 -- -- 70
2020-01-13 21:00:00 5.7 3 Norte 10 Norte 0 -- -- 77
2020-01-13 20:00:00 6.9 4 Norte 8 Norte 0 -- -- 71
2020-01-13 19:00:00 7.4 5 Norte 8 Norte 0 -- -- 68
2020-01-13 18:00:00 8.2 3 Norte 7 Sudoeste 0 -- -- 65
2020-01-13 17:00:00 10.7 0 Calma 14 Sudoeste 0 -- -- 50
2020-01-13 16:00:00 12 5 Sur 18 Sur 0 -- -- 46
2020-01-13 15:00:00 12.1 8 Sur 16 Sudoeste 0 -- -- 44
2020-01-13 14:00:00 12.1 6 Sudoeste 15 Sudoeste 0 -- -- 42
2020-01-13 13:00:00 12.8 4 Sur 9 Sur 0 -- -- 45
2020-01-13 12:00:00 13.2 4 Sudeste 10 Nordeste 0 -- -- 44
2020-01-13 11:00:00 12.2 0 Calma 5 Norte 0 -- -- 49
2020-01-13 10:00:00 6.9 4 Norte 10 Norte 0 -- -- 61
2020-01-13 09:00:00 5 5 Norte 10 Norte 0 -- -- 63
2020-01-13 08:00:00 4.3 5 Norte 11 Norte 0 -- -- 58
2020-01-13 07:00:00 3.8 4 Norte 10 Norte 0 -- -- 57
2020-01-13 06:00:00 4.1 5 Norte 10 Norte 0 -- -- 57
2020-01-13 05:00:00 4.3 0 Calma 8 Noroeste 0 -- -- 55
2020-01-13 04:00:00 4.6 0 Calma 6 Noroeste 0 -- -- 58
2020-01-13 03:00:00 4.6 3 Sudoeste 9 Sur 0 -- -- 57
2020-01-13 02:00:00 4.4 0 Calma 8 Sur 0 -- -- 60
2020-01-13 01:00:00 3.9 2 Noroeste 6 Noroeste 0 -- -- 63
2020-01-13 00:00:00 6.3 0 Calma 16 Sudoeste 0 -- -- 49
2020-01-12 23:00:00 6.5 4 Noroeste 13 Sur 0 -- -- 79
2020-01-12 22:00:00 4.5 3 Norte 10 Norte 0 -- -- 83
2020-01-12 21:00:00 5.4 5 Norte 11 Norte 0 -- -- 83
2020-01-12 20:00:00 6 5 Norte 12 Norte 0 -- -- 81
2020-01-12 19:00:00 6.5 4 Norte 11 Norte 0 -- -- 86
2020-01-12 18:00:00 7.7 3 Norte 8 Sudoeste 0 -- -- 84
2020-01-12 17:00:00 10.8 4 Sur 10 Sur 0 -- -- 68
2020-01-12 16:00:00 11.7 5 Sur 12 Sudoeste 0 -- -- 60
2020-01-12 15:00:00 11.7 4 Sur 12 Sur 0 -- -- 56
2020-01-12 14:00:00 13.4 5 Sur 14 Sudeste 0 -- -- 48
2020-01-12 13:00:00 13.3 5 Sur 11 Sur 0 -- -- 47
2020-01-12 12:00:00 13.7 4 Sudeste 13 Nordeste 0 -- -- 46
2020-01-12 11:00:00 13.5 0 Calma 7 Norte 0 -- -- 46
2020-01-12 10:00:00 7.5 5 Norte 12 Norte 0 -- -- 67
2020-01-12 09:00:00 5.1 7 Norte 15 Norte 0 -- -- 71
2020-01-12 08:00:00 3.8 5 Norte 13 Norte 0 -- -- 77
2020-01-12 07:00:00 4 6 Norte 15 Norte 0 -- -- 76
2020-01-12 06:00:00 4.1 6 Norte 13 Norte 0 -- -- 79
2020-01-12 05:00:00 3.9 4 Norte 9 Noroeste 0 -- -- 79
2020-01-12 04:00:00 3.9 4 Norte 13 Norte 0 -- -- 77
2020-01-12 03:00:00 4.7 4 Norte 12 Norte 0 -- -- 76
2020-01-12 02:00:00 5 5 Norte 13 Norte 0 -- -- 72
2020-01-12 01:00:00 5 7 Norte 12 Norte 0 -- -- 73
2020-01-12 00:00:00 4.7 5 Norte 10 Norte 0 -- -- 76
2020-01-11 23:00:00 4.8 5 Norte 13 Norte 0 -- -- 77
2020-01-11 22:00:00 5.4 6 Norte 12 Norte 0 -- -- 77
2020-01-11 21:00:00 5.9 6 Norte 13 Norte 0 -- -- 77
2020-01-11 20:00:00 6.5 6 Norte 12 Norte 0 -- -- 77
2020-01-11 19:00:00 6.3 5 Norte 9 Norte 0 -- -- 78
2020-01-11 18:00:00 7.3 4 Norte 8 Norte 0 -- -- 72
2020-01-11 17:00:00 10.5 2 Sudoeste 12 Sur 0 -- -- 48
2020-01-11 16:00:00 11.6 4 Sur 11 Sur 0 -- -- 43
2020-01-11 15:00:00 11.8 6 Sur 11 Sur 0 -- -- 41
2020-01-11 14:00:00 12.9 5 Sur 10 Sur 0 -- -- 37
2020-01-11 13:00:00 14.6 3 Sur 10 Sur 0 -- -- 39
2020-01-11 12:00:00 13.6 3 Sur 9 Sudeste 0 -- -- 37
2020-01-11 11:00:00 11.6 4 Sur 9 Sur 0 -- -- 53
2020-01-11 10:00:00 8 3 Norte 12 Norte 0.1 -- -- 77
2020-01-11 09:00:00 6 6 Norte 14 Norte 0 -- -- 83
2020-01-11 08:00:00 5.2 6 Norte 11 Norte 0 -- -- 91
2020-01-11 07:00:00 5 3 Norte 14 Norte 0 -- -- 87
2020-01-11 06:00:00 5.4 3 Noroeste 14 Norte 0 -- -- 87
2020-01-11 05:00:00 6.4 7 Norte 14 Norte 0 -- -- 88
2020-01-11 04:00:00 5.7 5 Noroeste 11 Norte 0 -- -- 90
2020-01-11 03:00:00 5.5 5 Noroeste 10 Norte 0 -- -- 89
2020-01-11 02:00:00 6.6 6 Norte 13 Norte 0 -- -- 85
2020-01-11 01:00:00 6.8 6 Norte 14 Norte 0 -- -- 86
2020-01-11 00:00:00 6.8 8 Norte 19 Norte 0 -- -- 87
2020-01-10 23:00:00 6.9 8 Norte 15 Norte 0 -- -- 90
2020-01-10 22:00:00 7 5 Norte 12 Norte 0 -- -- 90
2020-01-10 21:00:00 7.2 4 Norte 13 Norte 0 -- -- 90
2020-01-10 20:00:00 7.7 5 Norte 13 Norte 0 -- -- 90
2020-01-10 19:00:00 8.1 4 Norte 10 Norte 0 -- -- 89
2020-01-10 18:00:00 8.9 0 Calma 10 Noroeste 0 -- -- 87
2020-01-10 17:00:00 11.4 2 Sur 7 Sudoeste 0 -- -- 75
2020-01-10 16:00:00 11.7 3 Oeste 9 Sudoeste 0 -- -- 72
2020-01-10 15:00:00 11.8 2 Sudoeste 7 Oeste 0 -- -- 65
2020-01-10 14:00:00 11.7 2 Oeste 6 Noroeste 0 -- -- 74
2020-01-10 13:00:00 10.6 3 Noroeste 6 Norte 0 -- -- 83
2020-01-10 12:00:00 10 0 Calma 14 Norte 0 -- -- 84
2020-01-10 11:00:00 9.4 8 Norte 22 Noroeste 0.2 -- -- 79
2020-01-10 10:00:00 9.3 12 Norte 28 Norte 0.6 -- -- 78
2020-01-10 09:00:00 9.2 13 Norte 22 Noroeste 3.4 -- -- 87
2020-01-10 08:00:00 9.3 4 Norte 11 Noroeste 4.3 -- -- 91
2020-01-10 07:00:00 9.4 4 Norte 14 Norte 0.5 -- -- 88
2020-01-10 06:00:00 9.5 5 Norte 10 Norte 0.2 -- -- 85
2020-01-10 05:00:00 10.2 5 Norte 11 Norte 0.1 -- -- 78
2020-01-10 04:00:00 11.4 4 Noroeste 12 Sudoeste 0 -- -- 69
2020-01-10 03:00:00 11.1 5 Norte 11 Nordeste 0 -- -- 70
2020-01-10 02:00:00 11 6 Noroeste 13 Norte 0 -- -- 70
2020-01-10 01:00:00 11.2 4 Noroeste 15 Noroeste 0 -- -- 69
2020-01-10 00:00:00 10.8 5 Noroeste 19 Oeste 0 -- -- 71
2020-01-09 23:00:00 11.2 4 Oeste 16 Sudoeste 0 -- -- 68
2020-01-09 22:00:00 10.9 4 Oeste 14 Oeste 0 -- -- 70
2020-01-09 21:00:00 10.1 4 Oeste 14 Oeste 0 -- -- 77
2020-01-09 20:00:00 10.4 5 Sudoeste 17 Oeste 0 -- -- 79
2020-01-09 19:00:00 11 5 Sudoeste 17 Sudoeste 0 -- -- 80
2020-01-09 18:00:00 11.5 6 Sudoeste 18 Sudoeste 0 -- -- 78
2020-01-09 17:00:00 12.4 9 Sudoeste 28 Sur 0 -- -- 70
2020-01-09 16:00:00 13.2 7 Sudoeste 26 Sudoeste 0 -- -- 69
2020-01-09 15:00:00 13.3 11 Sur 28 Sur 0 -- -- 66
2020-01-09 14:00:00 13.7 13 Sur 27 Sur 0 -- -- 61
2020-01-09 13:00:00 14.6 10 Sudoeste 24 Sur 0 -- -- 57
2020-01-09 12:00:00 14.1 11 Sur 23 Sur 0 -- -- 61
2020-01-09 11:00:00 13.4 4 Sudoeste 16 Oeste 0 -- -- 65
2020-01-09 10:00:00 9.9 3 Sur 8 Sur 0 -- -- 92
2020-01-09 09:00:00 7.1 2 Norte 7 Norte 0 -- -- 92
2020-01-09 08:00:00 6.3 4 Norte 8 Norte 0 -- -- 92
2020-01-09 07:00:00 6.3 4 Norte 9 Norte 0 -- -- 92
2020-01-09 06:00:00 6.5 4 Norte 9 Norte 0 -- -- 92
2020-01-09 05:00:00 7.1 3 Noroeste 7 Norte 0 -- -- 92
2020-01-09 04:00:00 6.8 0 Calma 11 Noroeste 0 -- -- 92
2020-01-09 03:00:00 7.7 5 Norte 9 Norte 0 -- -- 92
2020-01-09 02:00:00 8.2 5 Norte 11 Norte 0 -- -- 91
2020-01-09 01:00:00 7.9 5 Norte 11 Norte 0 -- -- 91
2020-01-09 00:00:00 8 5 Norte 9 Norte 0 -- -- 91
2020-01-08 23:00:00 8.3 5 Norte 9 Norte 0 -- -- 90
2020-01-08 22:00:00 8.5 5 Norte 9 Norte 0 -- -- 87
2020-01-08 21:00:00 8.9 4 Norte 10 Norte 0 -- -- 85
2020-01-08 20:00:00 8.7 2 Oeste 6 Noroeste 0 -- -- 86
2020-01-08 19:00:00 9.7 4 Noroeste 10 Noroeste 0 -- -- 84
2020-01-08 18:00:00 10.9 3 Noroeste 6 Sudoeste 0 -- -- 83
2020-01-08 17:00:00 13.2 3 Sudeste 10 Sudeste 0 -- -- 73
2020-01-08 16:00:00 14.2 3 Sudeste 18 Nordeste 0 -- -- 66
2020-01-08 15:00:00 14.8 4 Sudeste 14 Sur 0 -- -- 60
2020-01-08 14:00:00 16.9 4 Nordeste 21 Nordeste 0 -- -- 35
2020-01-08 13:00:00 16.7 6 Norte 28 Norte 0 -- -- 38
2020-01-08 12:00:00 16.2 12 Norte 27 Nordeste 0 -- -- 42
2020-01-08 11:00:00 15.5 10 Norte 22 Norte 0 -- -- 51
2020-01-08 10:00:00 11.4 2 Norte 10 Norte 0 -- -- 70
2020-01-08 09:00:00 9.4 5 Norte 11 Norte 0 -- -- 82
2020-01-08 08:00:00 8.2 6 Norte 12 Norte 0 -- -- 80
2020-01-08 07:00:00 8.2 7 Norte 12 Norte 0 -- -- 74
2020-01-08 06:00:00 7.8 6 Norte 11 Noroeste 0 -- -- 67
2020-01-08 05:00:00 7.5 5 Norte 10 Norte 0 -- -- 64
2020-01-08 04:00:00 7.2 4 Norte 11 Norte 0 -- -- 63
2020-01-08 03:00:00 7.6 6 Norte 10 Noroeste 0 -- -- 62
2020-01-08 02:00:00 7.4 4 Norte 9 Norte 0 -- -- 66
2020-01-08 01:00:00 6.4 3 Norte 6 Norte 0 -- -- 64
2020-01-08 00:00:00 7.5 4 Norte 10 Norte 0 -- -- 56
2020-01-07 23:00:00 8.5 3 Norte 9 Norte 0 -- -- 58
2020-01-07 22:00:00 8.6 3 Nordeste 10 Norte 0 -- -- 61
2020-01-07 21:00:00 10.7 6 Norte 12 Norte 0 -- -- 59
2020-01-07 20:00:00 9.1 0 Calma 5 Norte 0 -- -- 78
2020-01-07 19:00:00 9.4 3 Norte 6 Norte 0 -- -- 78
2020-01-07 18:00:00 9.3 0 Calma 5 Norte 0 -- -- 76
2020-01-07 17:00:00 12.9 3 Sudoeste 10 Sur 0 -- -- 53
2020-01-07 16:00:00 13.8 3 Sudoeste 13 Sudoeste 0 -- -- 50
2020-01-07 15:00:00 14.1 5 Sudoeste 17 Sudoeste 0 -- -- 48
2020-01-07 14:00:00 15 8 Sur 17 Sudoeste 0 -- -- 42
2020-01-07 13:00:00 16.7 8 Sur 22 Sudoeste 0 -- -- 40
2020-01-07 12:00:00 16.7 6 Sudoeste 13 Sudoeste 0 -- -- 35
2020-01-07 11:00:00 14.7 4 Sur 8 Sur 0 -- -- 52
2020-01-07 10:00:00 9.6 2 Norte 11 Norte 0 -- -- 74
2020-01-07 09:00:00 7.5 4 Norte 10 Norte 0 -- -- 86
2020-01-07 08:00:00 6 3 Norte 8 Norte 0 -- -- 92
2020-01-07 07:00:00 6.2 2 Norte 7 Nordeste 0 -- -- 92
2020-01-07 06:00:00 6.9 4 Norte 10 Norte 0 -- -- 91
2020-01-07 05:00:00 7.1 5 Norte 12 Norte 0 -- -- 91
2020-01-07 04:00:00 7.2 6 Norte 13 Norte 0 -- -- 90
2020-01-07 03:00:00 7.5 5 Norte 16 Norte 0 -- -- 88
2020-01-07 02:00:00 7.8 6 Norte 12 Nordeste 0 -- -- 88
2020-01-07 01:00:00 8.5 6 Norte 14 Norte 0 -- -- 87
2020-01-07 00:00:00 8.1 6 Norte 12 Norte 0 -- -- 88
2020-01-06 23:00:00 8.2 6 Norte 12 Norte 0 -- -- 87
2020-01-06 22:00:00 9.1 8 Norte 14 Nordeste 0 -- -- 83
2020-01-06 21:00:00 8.6 7 Norte 15 Norte 0 -- -- 85
2020-01-06 20:00:00 9.1 4 Noroeste 9 Noroeste 0 -- -- 83
2020-01-06 19:00:00 10.8 4 Norte 6 Norte 0 -- -- 77
2020-01-06 18:00:00 11.2 0 Calma 4 Norte 0 -- -- 76
2020-01-06 17:00:00 12.1 0 Calma 5 Sur 0 -- -- 70
2020-01-06 16:00:00 13.2 3 Sur 10 Sudeste 0 -- -- 60
2020-01-06 15:00:00 13.8 3 Sudeste 10 Sur 0 -- -- 56
2020-01-06 14:00:00 14.4 4 Sur 14 Nordeste 0 -- -- 51
2020-01-06 13:00:00 15.8 3 Sudeste 13 Sudeste 0 -- -- 46
2020-01-06 12:00:00 16.5 4 Sudeste 11 Sudeste 0 -- -- 47
2020-01-06 11:00:00 13.2 3 Norte 10 Nordeste 0 -- -- 60
2020-01-06 10:00:00 10.1 5 Norte 16 Norte 0 -- -- 70